Saiq, Oman
Current Conditions -  °F | °C
As of 12:52 PM on Thursday 27 Nov 2014 (Local Time) from EQMN Reporting Station
Clear Clear  
Wind Chill: 90°   Ceiling: Unl
Heat Index: 90°   Visibility: 6mi
Dew Point: 43°   Wind: 6mph
Humidity: 20%   Direction: 360°N
Pressure: 29.91"   Gusts: 17mph
Location:  23.07°N, 57.63°E
Report Text: EQMN 270852Z AUTO 36005G15KT CAVOK 32/06 Q1013
Loading
Personal Weather Stations






























Interactive Weather Map New forecast layout! Learn more

10-Day Weather Forecast

Advertisements
Track Severe Weather on mobile